createdAt,value
2023-05-07T00:00:12.727Z,7.47
2023-05-07T00:02:40.269Z,7.07
2023-05-07T00:05:08.441Z,6.43
2023-05-07T00:07:36.054Z,7.87
2023-05-07T00:10:04.625Z,5.37
2023-05-07T00:12:34.837Z,4.07
2023-05-07T00:15:04.375Z,5.00
2023-05-07T00:17:31.916Z,3.70
2023-05-07T00:19:59.186Z,3.80
2023-05-07T00:22:26.555Z,3.70
2023-05-07T00:24:53.992Z,4.87
2023-05-07T00:27:21.282Z,5.03
2023-05-07T00:29:48.841Z,4.20
2023-05-07T00:32:16.275Z,4.40
2023-05-07T00:34:44.756Z,3.37
2023-05-07T00:37:12.967Z,3.63
2023-05-07T00:39:40.590Z,2.90
2023-05-07T00:42:09.058Z,3.30
2023-05-07T00:44:36.509Z,3.63
2023-05-07T00:47:05.713Z,3.27
2023-05-07T00:49:40.477Z,4.07
2023-05-07T00:52:09.985Z,3.87
2023-05-07T00:54:37.598Z,4.37
2023-05-07T00:57:05.251Z,4.00
2023-05-07T00:59:34.009Z,3.53
2023-05-07T01:02:01.593Z,4.43
2023-05-07T01:04:29.013Z,4.33
2023-05-07T01:06:59.082Z,4.40
2023-05-07T01:09:28.596Z,9.80
2023-05-07T01:11:58.450Z,4.70
2023-05-07T01:14:26.819Z,5.30
2023-05-07T01:16:54.931Z,5.33
2023-05-07T01:19:24.603Z,5.67
2023-05-07T01:21:53.358Z,5.00
2023-05-07T01:24:23.334Z,5.60
2023-05-07T01:26:50.968Z,4.70
2023-05-07T01:29:19.113Z,5.10
2023-05-07T01:31:48.766Z,5.30
2023-05-07T01:34:18.344Z,5.97
2023-05-07T01:36:46.918Z,5.03
2023-05-07T01:39:14.785Z,5.17
2023-05-07T01:41:44.097Z,6.17
2023-05-07T01:44:13.583Z,6.63
2023-05-07T01:46:41.531Z,6.53
2023-05-07T01:49:09.362Z,6.20
2023-05-07T01:51:37.208Z,5.83
2023-05-07T01:54:04.565Z,5.80
2023-05-07T01:56:32.329Z,5.83
2023-05-07T01:59:00.061Z,6.00
2023-05-07T02:01:28.850Z,7.30
2023-05-07T02:03:56.645Z,5.70
2023-05-07T02:06:27.006Z,5.60
2023-05-07T02:08:58.718Z,5.80
2023-05-07T02:11:26.370Z,4.73
2023-05-07T02:13:54.045Z,5.40
2023-05-07T02:16:22.340Z,4.87
2023-05-07T02:18:49.677Z,4.47
2023-05-07T02:21:17.249Z,4.20
2023-05-07T02:23:44.665Z,4.37
2023-05-07T02:26:12.508Z,5.00
2023-05-07T02:28:39.954Z,10.40
2023-05-07T02:31:07.603Z,3.67
2023-05-07T02:33:36.399Z,2.90
2023-05-07T02:36:12.976Z,3.27
2023-05-07T02:38:53.018Z,3.43
2023-05-07T02:41:21.691Z,3.30
2023-05-07T02:43:49.027Z,3.27
2023-05-07T02:46:18.372Z,3.73
2023-05-07T02:48:50.219Z,3.37
2023-05-07T02:51:23.998Z,3.77
2023-05-07T02:53:53.124Z,3.53
2023-05-07T02:56:22.128Z,3.40
2023-05-07T02:58:49.487Z,2.80
2023-05-07T03:01:18.457Z,4.20
2023-05-07T03:03:52.526Z,3.67
2023-05-07T03:06:20.080Z,3.47
2023-05-07T03:08:47.361Z,3.30
2023-05-07T03:11:14.745Z,3.30
2023-05-07T03:13:42.066Z,2.87
2023-05-07T03:16:09.440Z,3.30
2023-05-07T03:18:36.808Z,2.87
2023-05-07T03:21:04.219Z,3.27
2023-05-07T03:23:31.554Z,3.33
2023-05-07T03:25:58.864Z,3.17
2023-05-07T03:28:26.913Z,3.37
2023-05-07T03:30:59.860Z,3.37
2023-05-07T03:33:28.622Z,3.30
2023-05-07T03:35:56.905Z,3.40
2023-05-07T03:38:26.285Z,3.77
2023-05-07T03:40:53.577Z,3.60
2023-05-07T03:43:21.231Z,4.70
2023-05-07T03:45:53.552Z,4.03
2023-05-07T03:48:25.764Z,3.60
2023-05-07T03:50:55.414Z,4.03
2023-05-07T03:53:22.729Z,3.27
2023-05-07T03:55:50.704Z,3.10
2023-05-07T03:58:18.682Z,4.17
2023-05-07T04:00:46.610Z,4.10
2023-05-07T04:03:21.741Z,4.83
2023-05-07T04:05:49.431Z,3.40
2023-05-07T04:08:16.723Z,3.53
2023-05-07T04:10:48.347Z,4.30
2023-05-07T04:13:15.844Z,4.80
2023-05-07T04:15:43.991Z,4.63
2023-05-07T04:18:14.519Z,4.73
2023-05-07T04:20:45.206Z,4.40
2023-05-07T04:23:14.889Z,4.43
2023-05-07T04:25:42.603Z,4.70
2023-05-07T04:28:21.858Z,4.10
2023-05-07T04:30:51.085Z,4.33
2023-05-07T04:33:18.755Z,4.40
2023-05-07T04:35:47.510Z,3.73
2023-05-07T04:38:15.792Z,4.50
2023-05-07T04:40:43.849Z,5.60
2023-05-07T04:43:15.179Z,7.60
2023-05-07T04:45:47.852Z,6.03
2023-05-07T04:48:17.099Z,5.60
2023-05-07T04:50:44.532Z,5.57
2023-05-07T04:53:14.585Z,6.17
2023-05-07T04:55:42.154Z,6.53
2023-05-07T04:58:10.253Z,7.27
2023-05-07T05:00:40.338Z,6.73
2023-05-07T05:03:08.958Z,7.13
2023-05-07T05:05:39.022Z,6.90
2023-05-07T05:08:06.789Z,7.30
2023-05-07T05:10:37.240Z,7.70
2023-05-07T05:13:04.671Z,7.83
2023-05-07T05:15:34.072Z,7.70
2023-05-07T05:18:02.605Z,7.97
2023-05-07T05:20:30.318Z,7.60
2023-05-07T05:22:57.750Z,8.17
2023-05-07T05:25:25.235Z,8.17
2023-05-07T05:27:52.985Z,9.30
2023-05-07T05:30:21.316Z,10.37
2023-05-07T05:32:49.821Z,10.90
2023-05-07T05:35:17.249Z,11.50
2023-05-07T05:37:45.710Z,14.63
2023-05-07T05:40:13.626Z,20.37
2023-05-07T05:42:41.267Z,21.43
2023-05-07T05:45:10.842Z,21.70
2023-05-07T05:47:40.119Z,23.37
2023-05-07T05:50:08.664Z,24.27
2023-05-07T05:52:36.544Z,23.80
2023-05-07T05:55:04.473Z,24.00
2023-05-07T05:57:32.056Z,24.33
2023-05-07T05:59:59.617Z,24.40
2023-05-07T06:02:27.012Z,23.67
2023-05-07T06:04:54.691Z,23.80
2023-05-07T06:07:23.892Z,23.93
2023-05-07T06:09:51.567Z,22.97
2023-05-07T06:12:18.985Z,24.83
2023-05-07T06:14:48.736Z,23.57
2023-05-07T06:17:18.311Z,23.73
2023-05-07T06:19:48.433Z,23.80
2023-05-07T06:22:18.344Z,23.53
2023-05-07T06:24:45.783Z,22.10
2023-05-07T06:27:13.416Z,23.13
2023-05-07T06:29:41.611Z,22.40
2023-05-07T06:32:15.307Z,22.30
2023-05-07T06:34:44.774Z,22.87
2023-05-07T06:37:12.982Z,22.47
2023-05-07T06:39:59.919Z,22.70
2023-05-07T06:42:28.061Z,21.37
2023-05-07T06:44:59.966Z,22.17
2023-05-07T06:47:30.718Z,23.20
2023-05-07T06:49:58.069Z,21.47
2023-05-07T06:52:28.738Z,20.70
2023-05-07T06:54:56.877Z,20.57
2023-05-07T06:57:26.352Z,20.30
2023-05-07T06:59:53.861Z,20.13
2023-05-07T07:02:22.000Z,20.13
2023-05-07T07:04:50.783Z,21.03
2023-05-07T07:07:18.408Z,19.83
2023-05-07T07:09:47.689Z,19.73
2023-05-07T07:12:18.095Z,19.87
2023-05-07T07:14:45.718Z,19.67
2023-05-07T07:17:13.937Z,19.83
2023-05-07T07:19:41.370Z,19.40
2023-05-07T07:22:09.369Z,18.33
2023-05-07T07:24:36.677Z,17.40
2023-05-07T07:27:06.735Z,18.10
2023-05-07T07:29:35.720Z,19.17
2023-05-07T07:32:04.245Z,18.13
2023-05-07T07:34:32.714Z,18.83
2023-05-07T07:37:06.262Z,17.03
2023-05-07T07:39:34.572Z,17.63
2023-05-07T07:42:02.244Z,17.87
2023-05-07T07:44:31.077Z,17.70
2023-05-07T07:47:03.544Z,17.40
2023-05-07T07:49:31.350Z,18.23
2023-05-07T07:52:06.075Z,18.93
2023-05-07T07:54:36.372Z,18.87
2023-05-07T07:57:04.902Z,17.80
2023-05-07T07:59:34.067Z,18.40
2023-05-07T08:02:01.558Z,16.93
2023-05-07T08:04:31.633Z,17.73
2023-05-07T08:07:02.427Z,16.17
2023-05-07T08:09:31.913Z,16.10
2023-05-07T08:12:02.045Z,16.00
2023-05-07T08:14:31.222Z,15.43
2023-05-07T08:16:58.594Z,15.03
2023-05-07T08:19:26.227Z,14.23
2023-05-07T08:21:53.995Z,14.70
2023-05-07T08:24:23.296Z,14.47
2023-05-07T08:26:50.923Z,14.37
2023-05-07T08:29:18.633Z,14.70
2023-05-07T08:31:47.351Z,13.10
2023-05-07T08:34:14.759Z,13.47
2023-05-07T08:36:48.106Z,13.73
2023-05-07T08:39:17.916Z,13.10
2023-05-07T08:41:52.437Z,13.53
2023-05-07T08:44:23.516Z,13.80
2023-05-07T08:46:55.341Z,12.73
2023-05-07T08:49:23.881Z,13.93
2023-05-07T08:51:53.738Z,14.70
2023-05-07T08:54:22.727Z,15.70
2023-05-07T08:56:50.065Z,14.93
2023-05-07T08:59:18.653Z,15.10
2023-05-07T09:01:46.800Z,12.20
2023-05-07T09:04:15.068Z,12.30
2023-05-07T09:06:43.312Z,12.20
2023-05-07T09:09:18.564Z,12.33
2023-05-07T09:11:46.596Z,14.67
2023-05-07T09:14:16.222Z,15.37
2023-05-07T09:16:48.017Z,15.20
2023-05-07T09:19:16.315Z,15.17
2023-05-07T09:21:46.658Z,14.53
2023-05-07T09:24:17.548Z,15.00
2023-05-07T09:26:45.921Z,11.43
2023-05-07T09:29:18.156Z,11.20
2023-05-07T09:31:45.991Z,13.10
2023-05-07T09:34:17.258Z,13.43
2023-05-07T09:36:46.728Z,14.27
2023-05-07T09:39:14.658Z,13.63
2023-05-07T09:41:50.506Z,13.60
2023-05-07T09:44:25.794Z,13.37
2023-05-07T09:46:56.227Z,12.37
2023-05-07T09:49:37.315Z,12.63
2023-05-07T09:52:09.822Z,12.70
2023-05-07T09:54:44.171Z,14.10
2023-05-07T09:57:12.970Z,12.23
2023-05-07T09:59:44.210Z,12.33
2023-05-07T10:02:16.849Z,13.00
2023-05-07T10:04:50.269Z,12.40
2023-05-07T10:07:22.487Z,10.73
2023-05-07T10:09:53.444Z,10.77
2023-05-07T10:12:29.850Z,11.23
2023-05-07T10:14:57.636Z,11.97
2023-05-07T10:17:26.524Z,11.73
2023-05-07T10:19:54.937Z,12.47
2023-05-07T10:22:24.538Z,12.10
2023-05-07T10:24:55.449Z,12.20
2023-05-07T10:27:23.634Z,12.20
2023-05-07T10:30:22.793Z,11.20
2023-05-07T10:32:52.443Z,12.53
2023-05-07T10:35:33.001Z,10.53
2023-05-07T10:38:03.942Z,11.23
2023-05-07T10:40:33.988Z,12.20
2023-05-07T10:43:10.509Z,10.83
2023-05-07T10:46:19.275Z,11.00
2023-05-07T10:49:01.902Z,11.20
2023-05-07T10:51:36.908Z,11.37
2023-05-07T10:54:20.626Z,9.93
2023-05-07T10:56:56.650Z,11.57
2023-05-07T10:59:33.120Z,10.13
2023-05-07T11:02:10.721Z,10.73
2023-05-07T11:05:23.757Z,10.70
2023-05-07T11:08:04.630Z,10.80
2023-05-07T11:10:53.387Z,10.57
2023-05-07T11:13:46.266Z,10.83
2023-05-07T11:16:41.744Z,10.77
2023-05-07T11:19:52.314Z,9.57
2023-05-07T11:22:33.322Z,10.60
2023-05-07T11:25:10.434Z,10.13
2023-05-07T11:27:38.221Z,9.13
2023-05-07T11:30:05.979Z,9.37
2023-05-07T11:32:33.641Z,9.37
2023-05-07T11:35:02.250Z,8.33
2023-05-07T11:37:31.268Z,8.83
2023-05-07T11:40:08.149Z,9.03
2023-05-07T11:42:38.619Z,9.00
2023-05-07T11:45:09.668Z,8.40
2023-05-07T11:47:37.354Z,8.70
2023-05-07T11:50:07.447Z,8.03
2023-05-07T11:52:35.414Z,8.23
2023-05-07T11:55:04.723Z,8.10
2023-05-07T11:57:34.288Z,8.13
2023-05-07T12:00:06.324Z,8.17
2023-05-07T12:02:44.900Z,8.37
2023-05-07T12:05:13.631Z,7.43
2023-05-07T12:07:41.532Z,8.50
2023-05-07T12:10:09.362Z,7.93
2023-05-07T12:12:46.777Z,7.50
2023-05-07T12:15:23.457Z,8.20
2023-05-07T12:17:51.720Z,8.00
2023-05-07T12:20:19.635Z,8.20
2023-05-07T12:22:48.677Z,7.97
2023-05-07T12:25:20.992Z,8.03
2023-05-07T12:27:53.451Z,7.30
2023-05-07T12:30:20.787Z,7.00
2023-05-07T12:32:48.222Z,7.13
2023-05-07T12:35:15.833Z,7.87
2023-05-07T12:37:43.106Z,7.50
2023-05-07T12:40:12.238Z,6.97
2023-05-07T12:42:41.501Z,6.90
2023-05-07T12:45:10.974Z,7.40
2023-05-07T12:47:38.794Z,7.77
2023-05-07T12:50:07.774Z,7.53
2023-05-07T12:52:35.563Z,7.80
2023-05-07T12:55:07.721Z,7.30
2023-05-07T12:57:53.923Z,7.80
2023-05-07T13:00:38.497Z,6.80
2023-05-07T13:03:06.513Z,7.10
2023-05-07T13:05:33.997Z,7.80
2023-05-07T13:08:01.421Z,7.43
2023-05-07T13:10:29.592Z,6.93
2023-05-07T13:12:56.943Z,7.40
2023-05-07T13:15:24.311Z,7.10
2023-05-07T13:17:51.669Z,6.57
2023-05-07T13:20:19.070Z,7.10
2023-05-07T13:22:46.368Z,7.20
2023-05-07T13:25:14.138Z,6.80
2023-05-07T13:27:41.819Z,6.23
2023-05-07T13:30:09.372Z,6.07
2023-05-07T13:32:37.098Z,5.37
2023-05-07T13:35:04.925Z,5.30
2023-05-07T13:37:32.219Z,6.20
2023-05-07T13:39:59.572Z,5.73
2023-05-07T13:42:26.848Z,5.93
2023-05-07T13:44:54.141Z,5.47
2023-05-07T13:47:22.669Z,5.80
2023-05-07T13:49:51.525Z,5.07
2023-05-07T13:52:19.825Z,5.00
2023-05-07T13:54:47.227Z,5.73
2023-05-07T13:57:14.515Z,4.77
2023-05-07T13:59:42.276Z,5.60
2023-05-07T14:02:10.209Z,5.00
2023-05-07T14:04:38.875Z,4.90
2023-05-07T14:07:06.237Z,5.00
2023-05-07T14:09:33.742Z,5.43
2023-05-07T14:12:01.174Z,5.27
2023-05-07T14:14:28.572Z,4.80
2023-05-07T14:16:55.857Z,5.33
2023-05-07T14:19:23.784Z,5.20
2023-05-07T14:21:51.193Z,4.97
2023-05-07T14:24:27.428Z,4.70
2023-05-07T14:27:02.281Z,5.90
2023-05-07T14:29:29.918Z,5.17
2023-05-07T14:31:57.220Z,4.40
2023-05-07T14:34:24.502Z,4.53
2023-05-07T14:36:53.021Z,4.73
2023-05-07T14:39:20.426Z,4.77
2023-05-07T14:41:47.747Z,4.40
2023-05-07T14:44:15.510Z,4.40
2023-05-07T14:46:43.042Z,3.93
2023-05-07T14:49:17.989Z,4.80
2023-05-07T14:51:46.361Z,3.60
2023-05-07T14:54:14.720Z,5.20
2023-05-07T14:56:42.621Z,4.33
2023-05-07T14:59:10.393Z,6.20
2023-05-07T15:01:38.511Z,5.47
2023-05-07T15:04:06.257Z,5.00
2023-05-07T15:06:34.593Z,4.83
2023-05-07T15:09:01.923Z,3.80
2023-05-07T15:11:29.422Z,3.47
2023-05-07T15:13:56.991Z,3.30
2023-05-07T15:16:24.459Z,3.10
2023-05-07T15:18:52.040Z,2.80
2023-05-07T15:21:19.412Z,2.83
2023-05-07T15:23:46.870Z,3.10
2023-05-07T15:26:14.179Z,3.00
2023-05-07T15:28:42.262Z,3.13
2023-05-07T15:31:10.278Z,3.00
2023-05-07T15:33:37.608Z,3.23
2023-05-07T15:36:06.012Z,2.63
2023-05-07T15:38:33.253Z,2.90
2023-05-07T15:41:00.603Z,3.40
2023-05-07T15:43:27.880Z,3.97
2023-05-07T15:45:55.856Z,2.73
2023-05-07T15:48:23.152Z,2.80
2023-05-07T15:50:50.559Z,2.73
2023-05-07T15:53:17.843Z,2.90
2023-05-07T15:55:45.553Z,2.73
2023-05-07T15:58:14.176Z,2.73
2023-05-07T16:00:42.264Z,2.97
2023-05-07T16:03:09.764Z,3.40
2023-05-07T16:05:37.561Z,3.33
2023-05-07T16:08:05.591Z,9.73
2023-05-07T16:10:32.958Z,9.17
2023-05-07T16:13:00.279Z,7.73
2023-05-07T16:15:27.571Z,3.87
2023-05-07T16:17:58.284Z,3.40
2023-05-07T16:20:32.091Z,3.90
2023-05-07T16:22:59.712Z,3.77
2023-05-07T16:25:26.965Z,3.30
2023-05-07T16:27:55.025Z,3.50
2023-05-07T16:30:22.369Z,4.07
2023-05-07T16:32:49.840Z,6.53
2023-05-07T16:35:17.481Z,4.33
2023-05-07T16:37:44.901Z,3.73
2023-05-07T16:40:12.757Z,3.00
2023-05-07T16:42:40.056Z,3.80
2023-05-07T16:45:08.217Z,5.93
2023-05-07T16:47:35.581Z,4.90
2023-05-07T16:50:05.685Z,3.60
2023-05-07T16:52:33.735Z,3.37
2023-05-07T16:55:01.577Z,3.00
2023-05-07T16:57:32.721Z,3.80
2023-05-07T17:00:00.712Z,3.37
2023-05-07T17:02:28.300Z,3.60
2023-05-07T17:04:55.646Z,3.57
2023-05-07T17:07:23.024Z,3.83
2023-05-07T17:09:50.258Z,3.67
2023-05-07T17:12:17.687Z,4.13
2023-05-07T17:14:44.998Z,4.20
2023-05-07T17:17:12.349Z,3.90
2023-05-07T17:19:40.082Z,4.03
2023-05-07T17:22:07.510Z,4.00
2023-05-07T17:24:34.794Z,3.90
2023-05-07T17:27:02.282Z,4.03
2023-05-07T17:29:32.223Z,4.13
2023-05-07T17:32:00.146Z,3.80
2023-05-07T17:34:27.590Z,4.27
2023-05-07T17:36:56.109Z,3.87
2023-05-07T17:39:23.785Z,4.33
2023-05-07T17:41:51.300Z,3.63
2023-05-07T17:44:19.251Z,4.03
2023-05-07T17:46:46.577Z,3.60
2023-05-07T17:49:15.687Z,3.80
2023-05-07T17:51:53.997Z,4.20
2023-05-07T17:54:21.885Z,4.20
2023-05-07T17:56:49.272Z,4.47
2023-05-07T17:59:16.680Z,4.33
2023-05-07T18:01:44.409Z,4.43
2023-05-07T18:04:11.769Z,4.77
2023-05-07T18:06:39.732Z,4.97
2023-05-07T18:09:07.235Z,5.17
2023-05-07T18:11:34.750Z,5.43
2023-05-07T18:14:02.058Z,4.93
2023-05-07T18:16:29.572Z,5.57
2023-05-07T18:18:56.942Z,5.40
2023-05-07T18:21:24.232Z,6.33
2023-05-07T18:23:51.656Z,5.57
2023-05-07T18:26:18.985Z,5.23
2023-05-07T18:28:46.422Z,5.30
2023-05-07T18:31:13.856Z,4.80
2023-05-07T18:33:41.197Z,4.90
2023-05-07T18:36:08.668Z,5.17
2023-05-07T18:38:35.986Z,5.70
2023-05-07T18:41:04.482Z,5.77
2023-05-07T18:43:32.358Z,5.60
2023-05-07T18:45:59.889Z,5.83
2023-05-07T18:48:27.224Z,6.43
2023-05-07T18:50:54.632Z,7.40
2023-05-07T18:53:21.896Z,6.43
2023-05-07T18:55:50.877Z,6.90
2023-05-07T18:58:19.904Z,5.87
2023-05-07T19:00:48.432Z,6.40
2023-05-07T19:03:17.011Z,6.23
2023-05-07T19:05:45.307Z,6.77
2023-05-07T19:08:13.126Z,7.00
2023-05-07T19:10:40.403Z,7.60
2023-05-07T19:13:08.088Z,8.40
2023-05-07T19:15:35.731Z,7.70
2023-05-07T19:18:03.283Z,8.43
2023-05-07T19:20:30.936Z,8.57
2023-05-07T19:22:58.601Z,9.00
2023-05-07T19:25:25.959Z,8.47
2023-05-07T19:27:53.320Z,8.40
2023-05-07T19:30:20.811Z,8.63
2023-05-07T19:32:48.222Z,9.27
2023-05-07T19:35:15.844Z,10.23
2023-05-07T19:37:43.262Z,10.27
2023-05-07T19:40:11.307Z,10.60
2023-05-07T19:42:38.589Z,10.70
2023-05-07T19:45:06.432Z,10.90
2023-05-07T19:47:33.846Z,10.80
2023-05-07T19:50:01.568Z,11.77
2023-05-07T19:52:28.885Z,11.77
2023-05-07T19:54:56.636Z,11.03
2023-05-07T19:57:23.975Z,12.10
2023-05-07T19:59:51.267Z,11.97
2023-05-07T20:02:19.053Z,11.97
2023-05-07T20:04:46.496Z,12.43
2023-05-07T20:07:14.058Z,11.90
2023-05-07T20:09:41.496Z,11.50
2023-05-07T20:12:08.806Z,11.60
2023-05-07T20:14:36.373Z,11.33
2023-05-07T20:17:03.825Z,12.03
2023-05-07T20:19:31.294Z,11.87
2023-05-07T20:21:58.537Z,12.83
2023-05-07T20:24:26.119Z,12.47
2023-05-07T20:26:53.533Z,11.13
2023-05-07T20:29:23.343Z,11.70
2023-05-07T20:31:50.774Z,11.93
2023-05-07T20:34:18.143Z,11.40
2023-05-07T20:36:46.529Z,10.73
2023-05-07T20:39:15.999Z,10.57
2023-05-07T20:41:44.386Z,10.67
2023-05-07T20:44:12.048Z,11.70
2023-05-07T20:46:39.719Z,12.03
2023-05-07T20:49:07.039Z,12.00
2023-05-07T20:51:34.764Z,13.00
2023-05-07T20:54:02.155Z,13.30
2023-05-07T20:56:29.425Z,13.23
2023-05-07T20:58:57.161Z,12.83
2023-05-07T21:01:24.875Z,14.03
2023-05-07T21:03:54.040Z,13.73
2023-05-07T21:06:21.617Z,14.33
2023-05-07T21:08:48.916Z,15.10
2023-05-07T21:11:16.234Z,15.13
2023-05-07T21:13:43.674Z,14.57
2023-05-07T21:16:11.069Z,14.87
2023-05-07T21:18:38.376Z,15.53
2023-05-07T21:21:09.452Z,14.97
2023-05-07T21:23:37.166Z,14.63
2023-05-07T21:26:04.749Z,15.20
2023-05-07T21:28:32.490Z,15.57
2023-05-07T21:30:59.875Z,16.13
2023-05-07T21:33:27.262Z,15.70
2023-05-07T21:35:54.562Z,15.10
2023-05-07T21:38:22.048Z,14.97
2023-05-07T21:40:49.492Z,15.73
2023-05-07T21:43:16.866Z,15.57
2023-05-07T21:45:44.542Z,15.73
2023-05-07T21:48:13.494Z,14.87
2023-05-07T21:50:40.943Z,15.20
2023-05-07T21:53:08.669Z,13.87
2023-05-07T21:55:36.027Z,14.37
2023-05-07T21:58:06.068Z,14.40
2023-05-07T22:00:33.644Z,13.40
2023-05-07T22:03:01.282Z,13.00
2023-05-07T22:05:29.101Z,11.47
2023-05-07T22:07:56.412Z,11.47
2023-05-07T22:10:24.087Z,10.50
2023-05-07T22:12:51.620Z,10.83
2023-05-07T22:15:19.140Z,10.37
2023-05-07T22:17:46.515Z,10.50
2023-05-07T22:20:14.201Z,10.30
2023-05-07T22:22:51.858Z,9.50
2023-05-07T22:25:21.075Z,10.70
2023-05-07T22:27:48.906Z,10.27
2023-05-07T22:30:17.560Z,10.10
2023-05-07T22:32:45.743Z,10.80
2023-05-07T22:35:13.236Z,10.43
2023-05-07T22:37:40.662Z,11.10
2023-05-07T22:40:08.499Z,11.50
2023-05-07T22:42:35.779Z,11.70
2023-05-07T22:45:03.199Z,11.50
2023-05-07T22:47:31.262Z,11.47
2023-05-07T22:49:58.835Z,11.77
2023-05-07T22:52:26.640Z,11.13
2023-05-07T22:54:53.971Z,11.43
2023-05-07T22:57:21.320Z,11.23
2023-05-07T22:59:48.993Z,11.53
2023-05-07T23:02:16.384Z,10.07
2023-05-07T23:04:43.750Z,10.80
2023-05-07T23:07:11.512Z,10.80
2023-05-07T23:09:39.026Z,10.67
2023-05-07T23:12:06.590Z,11.90
2023-05-07T23:14:34.040Z,11.63
2023-05-07T23:17:01.449Z,11.77
2023-05-07T23:19:29.324Z,12.67
2023-05-07T23:21:57.230Z,12.23
2023-05-07T23:24:24.569Z,11.53
2023-05-07T23:26:51.892Z,11.93
2023-05-07T23:29:19.252Z,11.63
2023-05-07T23:31:46.591Z,11.43
2023-05-07T23:34:13.887Z,12.13
2023-05-07T23:36:41.522Z,10.93
2023-05-07T23:39:08.836Z,11.07
2023-05-07T23:41:36.490Z,11.87
2023-05-07T23:44:03.758Z,11.43
2023-05-07T23:46:31.250Z,11.50
2023-05-07T23:48:58.627Z,10.50
2023-05-07T23:51:26.312Z,11.60
2023-05-07T23:53:53.937Z,10.63
2023-05-07T23:56:21.275Z,10.33
2023-05-07T23:58:48.723Z,10.93
